• Join FlightAware (Why Join?)
  • Login
  • US Flag 
03:44PM EDT


 

Airport Tracker/Info


-or-


 

Live Flight TrackerFlight Track Log ✈ SWA1969 ✈ 11-Apr-2013 ✈ KDAL - KOKC

Flight Track Log - Related Links

Times and Time Zones

All times are in EDT time to prevent confusion due to time zone crossing. See the SWA1969 flight status page for this flight to view local times or setup timezone preferences in your user account.

Time Position Orientation Groundspeed Altitude Reporting Facility
EDT Latitude Longitude Course Direction KTS MPH feet Rate Location/Type
07:50AM 32.8667 -96.8833 320° Northwest 149 171 2,200  Level Dallas / Fort Worth TRACON
07:51AM 32.9000 -96.9167 320° Northwest 183 211 5,100 2,880 Climbing Dallas / Fort Worth TRACON
07:52AM 32.9333 -96.9667 308° West 235 270 7,700 3,480 Climbing Dallas / Fort Worth TRACON
07:54AM 33.0978 -97.0317 342° North 303 349 15,600 3,480 Climbing Fort Worth Center
07:55AM 33.1961 -97.0536 349° North 341 392 18,700 2,880 Climbing Fort Worth Center
07:56AM 33.3067 -97.0781 350° North 383 441 21,400 2,880 Climbing Fort Worth Center
07:57AM 33.4236 -97.1022 350° North 419 482 24,500 2,280 Climbing Fort Worth Center
07:58AM 33.5447 -97.0994 North 430 495 26,000 720 Climbing Fort Worth Center
07:59AM 33.6678 -97.0842 North 436 502 26,000 -300 Level Fort Worth Center
08:00AM 33.7764 -97.0686 North 438 504 25,400 -1,200 Descending Fort Worth Center
08:01AM 33.9036 -97.0506 North 443 510 23,700 -1,380 Descending Fort Worth Center
08:02AM 34.0225 -97.0350 North 438 504 22,700 -1,260 Descending Fort Worth Center
08:03AM 34.1478 -97.0219 North 422 486 21,200 -1,680 Descending Fort Worth Center
08:04AM 34.2583 -97.0089 North 403 464 19,400 -1,860 Descending Fort Worth Center
08:05AM 34.3647 -96.9958 North 393 452 17,500 -1,920 Descending Fort Worth Center
08:06AM 34.4606 -97.0106 353° North 354 407 15,600 -1,500 Descending Fort Worth Center
08:07AM 34.5400 -97.0606 333° Northwest 323 372 14,600 -1,020 Descending Fort Worth Center
08:08AM 34.6153 -97.1133 330° Northwest 323 372 13,600 -1,020 Descending Fort Worth Center
08:09AM 34.6739 -97.1483 334° Northwest 308 354 12,800 -1,020 Descending Fort Worth Center
08:10AM 34.7406 -97.1961 330° Northwest 302 348 11,900 -1,080 Descending Fort Worth Center
08:10AM 34.7636 -97.2089 336° Northwest 302 348 11,500 -1,020 Descending Fort Worth Center
08:11AM 34.8094 -97.2442 328° Northwest 282 325 10,900 -1,020 Descending Fort Worth Center
08:11AM 34.8306 -97.2592 330° Northwest 294 338 10,500 -1,140 Descending Fort Worth Center
08:12AM 34.8764 -97.2919 330° Northwest 278 320 9,800 -1,020 Descending Fort Worth Center
08:12AM 34.8972 -97.3047 333° Northwest 282 325 9,500 -1,020 Descending Fort Worth Center
08:13AM 34.9411 -97.3375 329° Northwest 270 311 8,800 -1,020 Descending Fort Worth Center
08:13AM 34.9600 -97.3528 326° Northwest 271 312 8,500 -1,020 Descending Fort Worth Center
08:14AM 35.0058 -97.3831 332° Northwest 265 305 7,800 -1,020 Descending Fort Worth Center
08:14AM 35.0225 -97.3958 328° Northwest 271 312 7,500 -1,140 Descending Fort Worth Center
08:15AM 35.0642 -97.4289 327° Northwest 253 291 6,700 -1,200 Descending Fort Worth Center
08:15AM 35.0808 -97.4389 334° Northwest 264 304 6,300 -1,320 Descending Fort Worth Center
08:16AM 35.1225 -97.4694 329° Northwest 236 272 5,400 -1,200 Descending Fort Worth Center
08:16AM 35.1392 -97.4794 334° Northwest 253 291 5,100 -1,380 Descending Fort Worth Center
08:17AM 35.1808 -97.5125 327° Northwest 225 259 4,000 -1,140 Descending Fort Worth Center
08:17AM 35.1872 -97.5153 340° North 241 277 4,000 -480 Level Fort Worth Center
08:18AM 35.2350 -97.5533 327° Northwest 211 243 3,500 -480 Descending Fort Worth Center
08:19AM 35.2789 -97.5839 330° Northwest 179 206 3,200 -540 Descending Fort Worth Center
08:20AM 35.3164 -97.5917 350° North 137 158 2,500 -720 Descending Fort Worth Center
08:21AM 35.3478 -97.5942 356° North 110 127 1,900 -600 Descending Fort Worth Center
08:22AM 35.3894 -97.5994 354° North 123 142 1,300 4,080 Descending Fort Worth Center
08:23AM 35.4206 -97.6047 352° North 123 142 11,000 9,660 Climbing Fort Worth Center